Time;durP1;ratioP1;P1;durP2;ratioP2;P2;SDS_P1;SDS_P2;PMS_P1;PMS_P2;Temp;Humidity;BMP_temperature;BMP_pressure;BME280_temperature;BME280_humidity;BME280_pressure;Samples;Min_cycle;Max_cycle;Signal;HPM_P1;HPM_P2
2023/02/08 00:00:22;;;;;;;25.33;14.18;;;1.00;99.90;;;;;;5038691;28;20462;-68
2023/02/08 00:02:48;;;;;;;25.35;13.55;;;0.90;99.90;;;;;;5037790;28;20032;-68
2023/02/08 00:05:13;;;;;;;29.88;14.75;;;0.90;99.90;;;;;;5034199;28;20037;-68
2023/02/08 00:07:39;;;;;;;25.80;13.93;;;0.90;99.90;;;;;;5037958;28;20045;-68
2023/02/08 00:10:05;;;;;;;27.55;14.10;;;0.90;99.90;;;;;;5036150;28;20058;-68
2023/02/08 00:12:35;;;;;;;23.05;13.38;;;0.90;99.90;;;;;;5036239;28;20504;-68
2023/02/08 00:15:00;;;;;;;27.77;15.25;;;0.90;99.90;;;;;;5039363;28;20478;-68
2023/02/08 00:17:26;;;;;;;25.52;14.90;;;0.80;99.90;;;;;;5041110;28;20028;-68
2023/02/08 00:19:51;;;;;;;24.90;13.63;;;0.70;99.90;;;;;;5037404;28;20468;-68
2023/02/08 00:22:17;;;;;;;26.42;14.65;;;0.80;99.90;;;;;;5043008;28;20095;-68
2023/02/08 00:24:43;;;;;;;29.40;15.85;;;0.70;99.90;;;;;;5041554;28;20033;-68
2023/02/08 00:27:08;;;;;;;27.58;15.98;;;0.80;99.90;;;;;;5041522;28;20037;-67
2023/02/08 00:29:34;;;;;;;26.92;14.88;;;0.80;99.90;;;;;;5048474;28;20420;-68
2023/02/08 00:32:00;;;;;;;31.08;16.23;;;0.80;99.90;;;;;;5039378;28;20057;-68
2023/02/08 00:34:26;;;;;;;28.52;15.30;;;0.80;99.90;;;;;;5043064;28;20083;-68
2023/02/08 00:36:52;;;;;;;28.58;16.00;;;0.80;99.90;;;;;;5047418;28;20037;-68
2023/02/08 00:39:19;;;;;;;27.73;14.77;;;0.80;99.90;;;;;;5045449;28;20031;-68
2023/02/08 00:41:45;;;;;;;26.40;14.70;;;0.80;99.90;;;;;;5046536;28;20029;-68
2023/02/08 00:44:11;;;;;;;28.60;14.05;;;0.80;99.90;;;;;;5044640;28;20047;-68
2023/02/08 00:46:37;;;;;;;26.45;13.38;;;0.70;99.90;;;;;;5051962;28;20111;-67
2023/02/08 00:49:02;;;;;;;28.45;15.30;;;0.80;99.90;;;;;;5053582;28;20029;-68
2023/02/08 00:51:28;;;;;;;25.90;13.30;;;0.80;99.90;;;;;;5045033;28;20029;-68
2023/02/08 00:53:54;;;;;;;26.88;13.90;;;0.80;99.90;;;;;;5048328;28;20032;-68
2023/02/08 00:56:20;;;;;;;26.88;14.20;;;0.70;99.90;;;;;;5038886;28;20041;-68
2023/02/08 00:58:45;;;;;;;24.75;13.35;;;0.70;99.90;;;;;;5045280;28;20393;-67
2023/02/08 01:01:11;;;;;;;27.90;14.00;;;0.70;99.90;;;;;;5047277;28;20030;-67
2023/02/08 01:03:39;;;;;;;27.17;13.52;;;0.60;99.90;;;;;;5051288;28;20029;-68
2023/02/08 01:06:09;;;;;;;27.35;13.13;;;0.60;99.90;;;;;;5050974;28;20033;-67
2023/02/08 01:08:34;;;;;;;26.02;14.10;;;0.70;99.90;;;;;;5045565;28;20478;-68
2023/02/08 01:11:21;;;;;;;24.90;13.15;;;0.70;99.90;;;;;;5041864;28;20032;-67
2023/02/08 01:13:48;;;;;;;25.20;13.43;;;0.70;99.90;;;;;;5048898;28;20025;-68
2023/02/08 01:16:18;;;;;;;32.25;13.85;;;0.70;99.90;;;;;;5045676;28;20040;-67
2023/02/08 01:18:46;;;;;;;24.08;13.32;;;0.70;99.90;;;;;;5043899;28;20103;-67
2023/02/08 01:21:17;;;;;;;27.63;14.60;;;0.70;99.90;;;;;;5049255;28;20377;-67
2023/02/08 01:23:44;;;;;;;26.25;15.68;;;0.60;99.90;;;;;;5039400;28;20018;-67
2023/02/08 01:26:13;;;;;;;24.70;14.95;;;0.70;99.90;;;;;;5048878;28;20087;-67
2023/02/08 01:28:39;;;;;;;32.53;16.08;;;0.70;99.90;;;;;;5042362;28;20037;-67
2023/02/08 01:31:11;;;;;;;28.70;15.35;;;0.60;99.90;;;;;;5043801;28;20026;-68
2023/02/08 01:33:37;;;;;;;28.00;14.27;;;0.60;99.90;;;;;;5043247;28;20377;-67
2023/02/08 01:36:03;;;;;;;27.80;14.15;;;0.60;99.90;;;;;;5048714;28;20041;-67
2023/02/08 01:38:29;;;;;;;25.58;14.77;;;0.50;99.90;;;;;;5041601;28;20027;-67
2023/02/08 01:40:55;;;;;;;27.23;15.65;;;0.60;99.90;;;;;;5044496;28;20559;-67
2023/02/08 01:43:27;;;;;;;29.17;15.85;;;0.60;99.90;;;;;;5043946;28;20026;-67
2023/02/08 01:45:53;;;;;;;26.15;14.88;;;0.60;99.90;;;;;;5042872;28;20025;-68
2023/02/08 01:48:47;;;;;;;29.63;14.88;;;0.60;99.90;;;;;;5044589;28;20113;-67
2023/02/08 01:51:26;;;;;;;26.90;14.82;;;0.60;99.90;;;;;;5041519;28;20037;-68
2023/02/08 01:53:54;;;;;;;26.92;14.55;;;0.60;99.90;;;;;;5047209;28;20111;-68
2023/02/08 01:56:29;;;;;;;27.05;14.13;;;0.50;99.90;;;;;;5041758;28;20024;-68
2023/02/08 01:58:58;;;;;;;28.00;14.98;;;0.50;99.90;;;;;;5043229;28;20116;-67
2023/02/08 02:01:25;;;;;;;23.10;13.80;;;0.50;99.90;;;;;;5047543;28;20052;-68
2023/02/08 02:03:50;;;;;;;28.55;13.95;;;0.50;99.90;;;;;;5045468;28;20392;-68
2023/02/08 02:06:21;;;;;;;24.98;14.27;;;0.40;99.90;;;;;;5048869;28;20037;-68
2023/02/08 02:08:54;;;;;;;25.52;13.82;;;0.50;99.90;;;;;;5042555;28;20496;-68
2023/02/08 02:11:20;;;;;;;25.73;13.38;;;0.40;99.90;;;;;;5045630;28;20096;-68
2023/02/08 02:13:47;;;;;;;25.50;13.07;;;0.40;99.90;;;;;;5043103;28;20030;-68
2023/02/08 02:16:12;;;;;;;27.02;13.30;;;0.40;99.90;;;;;;5044643;28;20036;-68
2023/02/08 02:18:38;;;;;;;25.92;13.00;;;0.40;99.90;;;;;;5039125;28;20025;-68
2023/02/08 02:21:28;;;;;;;27.58;13.18;;;0.40;99.90;;;;;;5040409;28;20047;-68
2023/02/08 02:24:12;;;;;;;21.65;12.43;;;0.30;99.90;;;;;;5046265;28;20084;-67
2023/02/08 02:26:50;;;;;;;24.02;12.27;;;0.30;99.90;;;;;;5045250;28;20021;-68
2023/02/08 02:29:30;;;;;;;25.05;13.07;;;0.30;99.90;;;;;;5047544;28;20040;-68
2023/02/08 02:32:14;;;;;;;23.77;13.23;;;0.30;99.90;;;;;;5042530;28;20081;-68
2023/02/08 02:34:45;;;;;;;25.40;13.23;;;0.30;99.90;;;;;;5050688;28;20053;-67
2023/02/08 02:37:48;;;;;;;24.65;14.38;;;0.30;99.90;;;;;;5045891;28;20572;-67
2023/02/08 02:40:47;;;;;;;24.50;13.20;;;0.20;99.90;;;;;;5040183;28;20048;-68
2023/02/08 02:46:13;;;;;;;25.67;13.23;;;0.20;99.90;;;;;;5042726;28;20075;-68
2023/02/08 02:48:44;;;;;;;27.50;13.82;;;0.20;99.90;;;;;;5042585;28;20060;-67
2023/02/08 02:51:36;;;;;;;23.67;13.38;;;0.20;99.90;;;;;;5041552;28;20032;-68
2023/02/08 02:54:08;;;;;;;28.42;15.25;;;0.20;99.90;;;;;;5039827;28;20044;-68
2023/02/08 02:56:38;;;;;;;22.98;13.52;;;0.20;99.90;;;;;;5045115;28;20065;-68
2023/02/08 02:59:07;;;;;;;24.40;13.02;;;0.20;99.90;;;;;;5040313;28;20017;-68
2023/02/08 03:01:33;;;;;;;22.92;12.30;;;0.10;99.90;;;;;;5047363;28;20025;-68
2023/02/08 03:03:59;;;;;;;26.67;13.77;;;0.10;99.90;;;;;;5044687;28;20029;-67
2023/02/08 03:06:43;;;;;;;25.92;13.05;;;0.10;99.90;;;;;;5037408;28;20036;-68
2023/02/08 03:09:30;;;;;;;28.23;13.38;;;0.10;99.90;;;;;;5040079;28;20025;-67
2023/02/08 03:12:07;;;;;;;24.15;11.82;;;0.10;99.90;;;;;;5050311;28;20037;-68
2023/02/08 03:14:59;;;;;;;25.42;12.68;;;0.00;99.90;;;;;;5037841;28;20033;-68
2023/02/08 03:17:41;;;;;;;25.48;13.23;;;0.00;99.90;;;;;;5047835;28;20032;-68
2023/02/08 03:20:22;;;;;;;28.77;12.68;;;0.00;99.90;;;;;;5041770;28;20050;-68
2023/02/08 03:23:26;;;;;;;26.23;13.48;;;0.00;99.90;;;;;;5043063;28;20021;-68
2023/02/08 03:26:21;;;;;;;25.90;12.68;;;0.00;99.90;;;;;;5041700;28;20489;-68
2023/02/08 03:29:29;;;;;;;27.80;14.68;;;0.00;99.90;;;;;;5046029;28;20025;-68
2023/02/08 03:32:02;;;;;;;24.20;13.18;;;0.00;99.90;;;;;;5042131;28;20107;-68
2023/02/08 03:34:50;;;;;;;25.15;13.32;;;0.00;99.90;;;;;;5036749;28;20493;-68
2023/02/08 03:37:21;;;;;;;26.65;13.80;;;0.00;99.90;;;;;;5037334;28;20028;-68
2023/02/08 03:39:50;;;;;;;21.90;12.30;;;-0.10;99.90;;;;;;5046460;28;20076;-68
2023/02/08 03:42:23;;;;;;;25.08;13.70;;;0.00;99.90;;;;;;5036908;28;20025;-68
2023/02/08 03:45:20;;;;;;;27.33;13.45;;;-0.10;99.90;;;;;;5045098;28;20030;-68
2023/02/08 03:47:49;;;;;;;23.35;11.55;;;-0.10;99.90;;;;;;5040479;28;20045;-67
2023/02/08 03:50:16;;;;;;;23.23;11.57;;;-0.10;99.90;;;;;;5044823;28;20028;-68
2023/02/08 03:52:45;;;;;;;26.00;12.38;;;-0.10;99.90;;;;;;5040817;28;20032;-68
2023/02/08 03:55:23;;;;;;;27.23;12.93;;;-0.10;99.90;;;;;;5042260;28;20048;-68
2023/02/08 03:57:58;;;;;;;23.70;12.15;;;-0.10;99.90;;;;;;5045532;28;20164;-68
2023/02/08 04:00:24;;;;;;;24.77;12.27;;;-0.10;99.90;;;;;;5038160;28;20022;-68
2023/02/08 04:03:05;;;;;;;23.73;11.73;;;-0.10;99.90;;;;;;5046037;28;20029;-68
2023/02/08 04:05:32;;;;;;;28.10;11.95;;;-0.20;99.90;;;;;;5042413;28;20064;-68
2023/02/08 04:07:57;;;;;;;24.90;12.25;;;-0.20;99.90;;;;;;5044560;28;20029;-68
2023/02/08 04:10:23;;;;;;;24.15;12.02;;;-0.20;99.90;;;;;;5051002;28;20087;-68
2023/02/08 04:12:49;;;;;;;22.95;11.85;;;-0.20;99.90;;;;;;5040228;28;20025;-68
2023/02/08 04:15:15;;;;;;;23.92;12.32;;;-0.30;99.90;;;;;;5046794;28;20497;-68
2023/02/08 04:17:41;;;;;;;22.52;11.82;;;-0.20;99.90;;;;;;5043629;28;20021;-68
2023/02/08 04:20:07;;;;;;;21.20;11.75;;;-0.30;99.90;;;;;;5046075;28;20490;-68
2023/02/08 04:22:32;;;;;;;25.90;12.70;;;-0.30;99.90;;;;;;5045163;28;20114;-68
2023/02/08 04:24:58;;;;;;;22.20;11.70;;;-0.30;99.90;;;;;;5047392;28;20032;-68
2023/02/08 04:27:24;;;;;;;28.00;11.85;;;-0.30;99.90;;;;;;5046364;28;20025;-68
2023/02/08 04:29:50;;;;;;;23.90;12.32;;;-0.30;99.90;;;;;;5042774;28;20044;-67
2023/02/08 04:32:15;;;;;;;27.15;12.85;;;-0.30;99.90;;;;;;5043005;28;20107;-68
2023/02/08 04:34:41;;;;;;;24.83;11.85;;;-0.30;99.90;;;;;;5042240;28;20119;-67
2023/02/08 04:37:07;;;;;;;27.88;14.02;;;-0.30;99.90;;;;;;5043953;28;20374;-68
2023/02/08 04:39:33;;;;;;;25.38;12.43;;;-0.40;99.90;;;;;;5050450;28;20025;-68
2023/02/08 04:41:59;;;;;;;23.92;11.95;;;-0.40;99.90;;;;;;5049915;28;20033;-68
2023/02/08 04:44:26;;;;;;;26.88;13.95;;;-0.40;99.90;;;;;;5050919;28;20055;-68
2023/02/08 04:46:51;;;;;;;23.65;13.38;;;-0.40;99.90;;;;;;5041776;28;20025;-68
2023/02/08 04:49:17;;;;;;;23.60;13.40;;;-0.40;99.90;;;;;;5047049;28;20581;-68
2023/02/08 04:51:43;;;;;;;23.10;12.20;;;-0.40;99.90;;;;;;5049109;28;20026;-68
2023/02/08 04:54:09;;;;;;;27.33;13.18;;;-0.40;99.90;;;;;;5054939;28;20086;-68
2023/02/08 04:56:36;;;;;;;23.33;11.93;;;-0.40;99.90;;;;;;5042860;28;20036;-68
2023/02/08 04:59:02;;;;;;;22.45;11.95;;;-0.50;99.90;;;;;;5045461;28;20021;-68
2023/02/08 05:01:27;;;;;;;24.48;13.07;;;-0.60;99.90;;;;;;5046058;28;20084;-68
2023/02/08 05:03:53;;;;;;;28.00;14.40;;;-0.60;99.90;;;;;;5049921;28;20026;-68
2023/02/08 05:06:18;;;;;;;28.80;13.68;;;-0.70;99.90;;;;;;5049541;28;20036;-68
2023/02/08 05:08:44;;;;;;;27.08;14.25;;;-0.90;99.90;;;;;;5042372;28;20107;-68
2023/02/08 05:11:09;;;;;;;30.00;13.77;;;-0.80;99.90;;;;;;5046107;28;20079;-68
2023/02/08 05:13:35;;;;;;;27.08;14.27;;;-0.80;99.90;;;;;;5044768;28;20025;-68
2023/02/08 05:16:01;;;;;;;25.58;13.15;;;-0.80;99.90;;;;;;5042531;28;20041;-68
2023/02/08 05:18:26;;;;;;;24.05;13.52;;;-0.70;99.90;;;;;;5040014;28;20076;-68
2023/02/08 05:20:59;;;;;;;29.05;14.70;;;-0.70;99.90;;;;;;5047714;28;20024;-68
2023/02/08 05:23:26;;;;;;;26.77;13.50;;;-0.70;99.90;;;;;;5048664;28;20021;-68
2023/02/08 05:25:52;;;;;;;25.38;13.48;;;-0.70;99.90;;;;;;5045362;28;20032;-67
2023/02/08 05:28:18;;;;;;;30.75;14.05;;;-0.70;99.90;;;;;;5044950;28;20021;-68
2023/02/08 05:30:45;;;;;;;22.75;13.27;;;-0.70;99.90;;;;;;5047938;28;20028;-67
2023/02/08 05:33:10;;;;;;;23.48;12.57;;;-0.70;99.90;;;;;;5042617;28;20448;-68
2023/02/08 05:35:36;;;;;;;26.08;14.88;;;-0.70;99.90;;;;;;5043326;28;20467;-68
2023/02/08 05:38:02;;;;;;;24.77;13.73;;;-0.80;99.90;;;;;;5053833;28;20359;-68
2023/02/08 05:40:27;;;;;;;26.15;13.77;;;-0.80;99.90;;;;;;5044596;28;20032;-68
2023/02/08 05:42:53;;;;;;;26.77;12.88;;;-0.80;99.90;;;;;;5041800;28;20481;-68
2023/02/08 05:45:18;;;;;;;25.77;12.63;;;-0.90;99.90;;;;;;5046311;28;20025;-68
2023/02/08 05:47:46;;;;;;;27.58;14.65;;;-0.90;99.90;;;;;;5044091;28;20053;-68
2023/02/08 05:50:12;;;;;;;27.73;13.85;;;-0.90;99.90;;;;;;5037813;28;20104;-68
2023/02/08 05:52:38;;;;;;;28.52;14.93;;;-0.90;99.90;;;;;;5041912;28;20426;-68
2023/02/08 05:55:05;;;;;;;24.92;13.20;;;-0.90;99.90;;;;;;5042442;28;20265;-68
2023/02/08 05:57:30;;;;;;;24.42;12.70;;;-0.90;99.90;;;;;;5051689;28;20175;-67
2023/02/08 05:59:56;;;;;;;27.13;14.48;;;-0.90;99.90;;;;;;5047704;28;20612;-68
2023/02/08 06:02:22;;;;;;;24.48;13.40;;;-0.90;99.90;;;;;;5041475;28;20025;-68
2023/02/08 06:04:47;;;;;;;24.90;13.63;;;-0.80;99.90;;;;;;5043743;28;20036;-68
2023/02/08 06:07:13;;;;;;;24.10;13.43;;;-0.80;99.90;;;;;;5048699;28;20031;-68
2023/02/08 06:09:38;;;;;;;24.83;13.43;;;-0.80;99.90;;;;;;5044678;28;20017;-68
2023/02/08 06:12:04;;;;;;;29.08;13.63;;;-0.80;99.90;;;;;;5045641;28;20024;-68
2023/02/08 06:14:30;;;;;;;23.17;12.45;;;-0.80;99.90;;;;;;5046074;28;20084;-68
2023/02/08 06:16:55;;;;;;;23.60;13.40;;;-0.80;99.90;;;;;;5050355;28;20643;-67
2023/02/08 06:19:21;;;;;;;24.08;13.05;;;-0.80;99.90;;;;;;5049870;28;20022;-67
2023/02/08 06:21:46;;;;;;;22.25;12.48;;;-0.80;99.90;;;;;;5051235;28;20029;-67
2023/02/08 06:24:12;;;;;;;27.45;13.43;;;-0.80;99.90;;;;;;5040073;28;20033;-67
2023/02/08 06:26:38;;;;;;;28.52;13.75;;;-0.90;99.90;;;;;;5045978;28;20546;-67
2023/02/08 06:29:04;;;;;;;28.25;14.40;;;-0.90;99.90;;;;;;5047765;28;20036;-68
2023/02/08 06:31:29;;;;;;;24.05;13.30;;;-0.90;99.90;;;;;;5045322;28;20037;-68
2023/02/08 06:33:55;;;;;;;25.35;12.88;;;-0.90;99.90;;;;;;5051300;28;20051;-68
2023/02/08 06:36:20;;;;;;;25.13;11.38;;;-0.90;99.90;;;;;;5042693;28;20032;-70
2023/02/08 06:38:46;;;;;;;28.23;14.75;;;-1.00;99.90;;;;;;5042746;28;20029;-68
2023/02/08 06:41:12;;;;;;;30.02;13.90;;;-1.00;99.90;;;;;;5045761;28;20144;-68
2023/02/08 06:43:38;;;;;;;23.15;13.60;;;-1.00;99.90;;;;;;5041174;28;20032;-67
2023/02/08 06:46:07;;;;;;;26.38;13.90;;;-1.00;99.90;;;;;;5046977;28;20098;-68
2023/02/08 06:48:33;;;;;;;29.52;14.93;;;-1.00;99.90;;;;;;5050591;28;20070;-68
2023/02/08 06:50:59;;;;;;;26.08;14.10;;;-1.00;99.90;;;;;;5044734;28;20510;-67
2023/02/08 06:53:24;;;;;;;26.35;14.25;;;-1.00;99.90;;;;;;5053215;28;20044;-68
2023/02/08 06:55:50;;;;;;;28.08;14.00;;;-1.10;99.90;;;;;;5046003;28;20047;-68
2023/02/08 06:58:16;;;;;;;26.70;13.48;;;-1.00;99.90;;;;;;5044443;28;20133;-68
2023/02/08 07:00:44;;;;;;;26.90;13.55;;;-1.00;99.90;;;;;;5045109;28;20031;-68
2023/02/08 07:03:11;;;;;;;22.52;11.70;;;-1.00;99.90;;;;;;5049414;28;20036;-68
2023/02/08 07:05:37;;;;;;;28.95;14.13;;;-0.90;99.90;;;;;;5038251;28;20090;-68
2023/02/08 07:08:03;;;;;;;24.20;12.23;;;-1.00;99.90;;;;;;5043833;28;20348;-68
2023/02/08 07:10:29;;;;;;;23.98;13.07;;;-1.00;99.90;;;;;;5047249;28;20041;-68
2023/02/08 07:12:55;;;;;;;28.45;13.05;;;-1.00;99.90;;;;;;5036910;28;20033;-68
2023/02/08 07:15:20;;;;;;;25.80;12.40;;;-0.90;99.90;;;;;;5047723;28;20037;-68
2023/02/08 07:17:46;;;;;;;30.02;13.23;;;-0.90;99.90;;;;;;5040689;28;20021;-68
2023/02/08 07:20:12;;;;;;;23.58;13.30;;;-0.90;99.90;;;;;;5042229;28;20099;-68
2023/02/08 07:22:38;;;;;;;24.45;12.95;;;-0.90;99.90;;;;;;5051043;28;20083;-67
2023/02/08 07:25:06;;;;;;;26.45;13.63;;;-0.90;99.90;;;;;;5046060;28;20097;-68
2023/02/08 07:27:31;;;;;;;25.92;13.35;;;-0.90;99.90;;;;;;5042973;28;20124;-68
2023/02/08 07:29:57;;;;;;;25.42;12.48;;;-1.00;99.90;;;;;;5038983;28;20341;-69
2023/02/08 07:32:22;;;;;;;24.85;13.85;;;-1.00;99.90;;;;;;5047615;28;20119;-68
2023/02/08 07:34:48;;;;;;;27.10;14.55;;;-1.10;99.90;;;;;;5041007;28;20033;-67
2023/02/08 07:37:14;;;;;;;31.52;15.70;;;-1.10;99.90;;;;;;5043274;28;20072;-68
2023/02/08 07:39:39;;;;;;;31.17;15.50;;;-1.10;99.90;;;;;;5038865;28;20051;-68
2023/02/08 07:42:06;;;;;;;33.55;16.20;;;-1.00;99.90;;;;;;5040882;28;20136;-68
2023/02/08 07:44:32;;;;;;;29.65;14.80;;;-1.00;99.90;;;;;;5037937;28;20043;-68
2023/02/08 07:46:58;;;;;;;22.58;12.85;;;-0.90;99.90;;;;;;5045761;28;20104;-68
2023/02/08 07:49:23;;;;;;;24.73;12.57;;;-0.90;99.90;;;;;;5043997;28;20028;-69
2023/02/08 07:51:49;;;;;;;23.17;12.95;;;-0.90;99.90;;;;;;5042066;28;20025;-68
2023/02/08 07:54:14;;;;;;;31.73;14.38;;;-0.90;99.90;;;;;;5047550;28;20478;-69
2023/02/08 07:56:40;;;;;;;28.75;15.10;;;-0.80;99.90;;;;;;5037528;28;20037;-68
2023/02/08 07:59:06;;;;;;;29.85;14.68;;;-0.80;99.90;;;;;;5037727;28;20028;-69
2023/02/08 08:01:32;;;;;;;26.23;13.52;;;-0.80;99.90;;;;;;5040696;28;20051;-68
2023/02/08 08:03:57;;;;;;;23.33;13.20;;;-0.70;99.90;;;;;;5045177;28;20104;-68
2023/02/08 08:06:23;;;;;;;29.25;13.52;;;-0.80;99.90;;;;;;5038345;28;20509;-68
2023/02/08 08:08:49;;;;;;;24.33;12.95;;;-0.80;99.90;;;;;;5043222;28;20539;-69
2023/02/08 08:11:16;;;;;;;25.00;14.05;;;-0.80;99.90;;;;;;5046265;28;20030;-68
2023/02/08 08:13:42;;;;;;;24.98;13.27;;;-0.80;99.90;;;;;;5041412;28;20370;-69
2023/02/08 08:16:08;;;;;;;29.38;13.25;;;-0.80;99.90;;;;;;5035084;28;20041;-69
2023/02/08 08:18:34;;;;;;;26.05;14.02;;;-0.80;99.90;;;;;;5046712;28;20028;-69
2023/02/08 08:21:01;;;;;;;28.15;15.48;;;-0.80;99.90;;;;;;5039075;28;20056;-69
2023/02/08 08:23:28;;;;;;;28.25;15.02;;;-0.80;99.90;;;;;;5039581;28;20401;-69
2023/02/08 08:25:54;;;;;;;28.95;16.30;;;-0.80;99.90;;;;;;5046471;28;20475;-69
2023/02/08 08:28:19;;;;;;;31.50;13.75;;;-0.60;99.90;;;;;;5040102;28;20513;-69
2023/02/08 08:30:45;;;;;;;29.15;13.80;;;-0.50;99.90;;;;;;5043901;28;20025;-69
2023/02/08 08:33:12;;;;;;;26.80;14.82;;;-0.40;99.90;;;;;;5038685;28;20029;-69
2023/02/08 08:35:38;;;;;;;28.02;12.95;;;-0.30;99.90;;;;;;5041285;28;20037;-69
2023/02/08 08:38:04;;;;;;;28.92;14.27;;;-0.20;99.90;;;;;;5042361;28;20025;-69
2023/02/08 08:40:30;;;;;;;25.63;13.38;;;0.00;99.90;;;;;;5041212;28;20450;-69
2023/02/08 08:42:56;;;;;;;27.90;13.98;;;0.00;99.90;;;;;;5041847;28;20028;-69
2023/02/08 08:45:22;;;;;;;28.25;14.77;;;0.20;99.90;;;;;;5040450;28;20033;-69
2023/02/08 08:47:47;;;;;;;26.52;14.88;;;0.30;99.90;;;;;;5045252;28;20531;-69
2023/02/08 08:50:13;;;;;;;31.20;13.85;;;0.50;99.90;;;;;;5043586;28;20036;-69
2023/02/08 08:52:39;;;;;;;21.25;12.77;;;0.60;99.90;;;;;;5044856;28;20072;-69
2023/02/08 08:55:06;;;;;;;34.15;13.80;;;0.70;99.90;;;;;;5054990;28;20064;-70
2023/02/08 08:57:31;;;;;;;28.90;13.50;;;0.80;99.90;;;;;;5043889;28;20380;-69
2023/02/08 08:59:57;;;;;;;30.00;13.40;;;0.80;99.90;;;;;;5048523;28;20029;-70
2023/02/08 09:02:23;;;;;;;27.42;13.57;;;0.90;99.90;;;;;;5048455;28;20052;-70
2023/02/08 09:04:48;;;;;;;29.00;13.68;;;0.90;99.90;;;;;;5047354;28;20032;-70
2023/02/08 09:07:14;;;;;;;29.77;14.93;;;0.90;99.90;;;;;;5054604;28;20105;-69
2023/02/08 09:09:40;;;;;;;25.40;14.40;;;1.10;99.90;;;;;;5047276;28;20375;-71
2023/02/08 09:12:06;;;;;;;25.10;13.30;;;1.20;99.90;;;;;;5049052;28;20056;-71
2023/02/08 09:14:32;;;;;;;27.15;13.75;;;1.30;99.90;;;;;;5045725;28;20037;-70
2023/02/08 09:16:58;;;;;;;29.65;13.43;;;1.30;99.90;;;;;;5045053;28;20036;-70
2023/02/08 09:19:23;;;;;;;24.42;12.68;;;1.20;99.90;;;;;;5049611;28;20025;-71
2023/02/08 09:21:49;;;;;;;41.60;15.15;;;1.30;99.90;;;;;;5047854;28;20025;-71
2023/02/08 09:24:15;;;;;;;77.65;18.10;;;1.40;99.90;;;;;;5048621;28;20017;-72
2023/02/08 09:26:41;;;;;;;30.42;12.20;;;1.50;99.90;;;;;;5041115;28;20446;-71
2023/02/08 09:29:07;;;;;;;53.72;15.68;;;1.70;99.90;;;;;;5040351;28;20100;-72
2023/02/08 09:31:36;;;;;;;76.95;16.88;;;1.70;99.90;;;;;;5039140;28;20385;-70
2023/02/08 09:34:03;;;;;;;61.45;16.35;;;1.90;99.90;;;;;;5041210;28;20023;-71
2023/02/08 09:36:31;;;;;;;40.00;13.68;;;2.00;99.90;;;;;;5038352;28;20520;-71
2023/02/08 09:39:03;;;;;;;22.58;12.57;;;2.10;99.90;;;;;;5045237;28;20378;-70
2023/02/08 09:42:07;;;;;;;24.13;13.50;;;2.10;99.90;;;;;;5043456;28;20029;-71
2023/02/08 09:44:51;;;;;;;26.08;12.80;;;2.30;99.90;;;;;;5040423;28;20045;-72
2023/02/08 09:47:34;;;;;;;23.98;11.57;;;2.40;99.90;;;;;;5050738;28;20025;-72
2023/02/08 09:50:19;;;;;;;21.17;10.45;;;2.50;99.90;;;;;;5042398;28;20115;-71
2023/02/08 09:53:03;;;;;;;19.10;10.38;;;2.60;99.90;;;;;;5041748;28;20051;-71
2023/02/08 09:55:32;;;;;;;22.27;10.88;;;2.70;99.90;;;;;;5047795;28;20040;-71
2023/02/08 09:58:02;;;;;;;15.70;9.20;;;2.90;99.90;;;;;;5044440;28;20041;-71
2023/02/08 10:00:39;;;;;;;20.13;10.60;;;3.00;99.90;;;;;;5039896;28;20048;-71
2023/02/08 10:03:19;;;;;;;19.80;11.57;;;3.00;99.90;;;;;;5049571;28;20347;-71
2023/02/08 10:05:45;;;;;;;17.80;9.38;;;3.20;99.90;;;;;;5041177;28;20022;-72
2023/02/08 10:08:11;;;;;;;19.15;10.32;;;3.30;99.90;;;;;;5042288;28;20027;-71
2023/02/08 10:10:45;;;;;;;17.70;9.63;;;3.50;99.90;;;;;;5046508;28;20034;-70
2023/02/08 10:13:28;;;;;;;20.27;10.35;;;3.50;99.90;;;;;;5037445;28;20074;-71
2023/02/08 10:16:10;;;;;;;21.80;8.30;;;3.60;99.90;;;;;;5042752;28;20037;-71
2023/02/08 10:19:04;;;;;;;17.50;9.10;;;3.70;99.90;;;;;;5035630;28;20057;-69
2023/02/08 10:21:40;;;;;;;17.02;8.68;;;3.70;99.90;;;;;;5047125;28;20033;-70
2023/02/08 10:24:15;;;;;;;14.35;8.52;;;3.80;99.90;;;;;;5048860;28;20025;-70
2023/02/08 10:27:00;;;;;;;14.57;7.97;;;3.90;99.90;;;;;;5038681;28;20037;-70
2023/02/08 10:29:38;;;;;;;19.08;8.50;;;3.90;99.90;;;;;;5041611;28;20264;-71
2023/02/08 10:32:03;;;;;;;15.88;8.80;;;4.00;99.90;;;;;;5044086;28;20060;-70
2023/02/08 10:34:40;;;;;;;18.25;9.10;;;4.10;99.90;;;;;;5048047;28;20064;-70
2023/02/08 10:37:18;;;;;;;19.50;9.18;;;4.20;99.90;;;;;;5052007;28;20036;-70
2023/02/08 10:39:45;;;;;;;17.70;8.98;;;4.40;99.90;;;;;;5037416;28;20490;-70
2023/02/08 10:42:16;;;;;;;14.90;8.23;;;4.40;99.90;;;;;;5048649;28;20025;-70
2023/02/08 10:45:26;;;;;;;15.23;8.52;;;4.50;99.90;;;;;;5046234;28;20033;-70
2023/02/08 10:47:59;;;;;;;15.07;8.85;;;4.70;99.90;;;;;;5025235;28;20027;-70
2023/02/08 10:50:32;;;;;;;17.05;8.80;;;4.90;99.90;;;;;;5023052;28;20025;-70
2023/02/08 10:52:58;;;;;;;15.98;8.80;;;4.90;99.90;;;;;;5029859;28;20052;-69
2023/02/08 10:55:24;;;;;;;12.57;8.27;;;4.90;99.90;;;;;;5031757;28;20079;-70
2023/02/08 10:57:55;;;;;;;14.68;9.07;;;5.00;99.90;;;;;;5031475;28;20025;-70
2023/02/08 11:00:25;;;;;;;17.60;8.52;;;5.00;99.90;;;;;;5033997;28;20073;-70
2023/02/08 11:02:53;;;;;;;15.55;8.88;;;5.20;99.90;;;;;;5028306;28;20032;-70
2023/02/08 11:05:25;;;;;;;13.45;8.48;;;5.30;99.90;;;;;;5029543;28;20504;-70
2023/02/08 11:08:06;;;;;;;16.02;8.68;;;5.40;99.90;;;;;;5029031;28;20029;-69
2023/02/08 11:10:33;;;;;;;14.77;9.00;;;5.50;99.90;;;;;;5029866;28;20028;-69
2023/02/08 11:13:02;;;;;;;15.23;8.85;;;5.60;99.90;;;;;;5032681;28;20527;-69
2023/02/08 11:15:48;;;;;;;18.38;10.23;;;5.50;99.90;;;;;;5025949;28;20036;-69
2023/02/08 11:18:19;;;;;;;20.55;8.82;;;5.60;99.90;;;;;;5031570;28;20056;-69
2023/02/08 11:20:48;;;;;;;16.25;9.13;;;5.70;99.90;;;;;;5030769;28;20021;-69
2023/02/08 11:23:24;;;;;;;12.73;8.93;;;5.80;99.90;;;;;;5031615;28;20489;-69
2023/02/08 11:25:51;;;;;;;16.85;9.38;;;5.80;99.90;;;;;;5027016;28;20109;-69
2023/02/08 11:28:27;;;;;;;18.20;9.80;;;5.80;99.90;;;;;;5029041;28;20029;-70
2023/02/08 11:31:18;;;;;;;15.25;8.68;;;5.90;99.90;;;;;;5030885;28;20018;-69
2023/02/08 11:34:04;;;;;;;15.48;8.32;;;5.90;99.90;;;;;;5029322;28;20099;-69
2023/02/08 11:36:33;;;;;;;12.07;8.35;;;5.90;99.90;;;;;;5033509;28;20088;-69
2023/02/08 11:39:28;;;;;;;17.35;8.07;;;6.00;99.90;;;;;;5029697;28;20021;-70
2023/02/08 11:41:57;;;;;;;13.75;7.47;;;6.00;99.90;;;;;;5032711;28;20033;-69
2023/02/08 11:44:44;;;;;;;13.10;7.32;;;6.10;99.90;;;;;;5026922;28;20034;-69
2023/02/08 11:47:15;;;;;;;15.73;8.10;;;6.20;99.90;;;;;;5024535;28;20366;-70
2023/02/08 11:49:43;;;;;;;14.32;7.30;;;6.10;99.90;;;;;;5029887;28;20032;-69
2023/02/08 11:52:28;;;;;;;11.55;7.40;;;6.20;99.90;;;;;;5031601;28;20070;-71
2023/02/08 11:55:29;;;;;;;14.20;7.47;;;6.30;99.90;;;;;;5030798;28;20131;-71
2023/02/08 11:58:29;;;;;;;14.63;7.85;;;6.30;99.90;;;;;;5032894;28;20063;-70
2023/02/08 12:00:58;;;;;;;15.07;7.53;;;6.30;99.90;;;;;;5029954;28;20042;-70
2023/02/08 12:03:35;;;;;;;19.23;7.38;;;6.40;99.90;;;;;;5029277;28;20064;-71
2023/02/08 12:06:19;;;;;;;15.90;7.47;;;6.50;99.90;;;;;;5031394;28;20017;-71
2023/02/08 12:09:11;;;;;;;12.98;6.82;;;6.50;99.90;;;;;;5027675;28;20029;-71
2023/02/08 12:11:45;;;;;;;12.85;7.50;;;6.70;99.90;;;;;;5032061;28;20033;-70
2023/02/08 12:14:10;;;;;;;11.98;7.30;;;6.80;99.90;;;;;;5030260;28;20037;-71
2023/02/08 12:16:56;;;;;;;12.93;6.47;;;6.80;99.90;;;;;;5029998;28;20382;-70
2023/02/08 12:19:36;;;;;;;12.20;6.50;;;6.60;99.90;;;;;;5030109;28;20025;-70
2023/02/08 12:22:11;;;;;;;14.52;7.72;;;6.70;99.90;;;;;;5035306;28;20055;-71
2023/02/08 12:24:46;;;;;;;11.13;6.65;;;6.80;99.90;;;;;;5029784;28;20079;-71
2023/02/08 12:27:27;;;;;;;12.65;7.65;;;6.70;99.90;;;;;;5027919;28;20053;-71
2023/02/08 12:29:57;;;;;;;13.35;6.72;;;6.60;99.90;;;;;;5033365;28;20363;-70
2023/02/08 12:32:28;;;;;;;14.43;7.82;;;6.70;99.90;;;;;;5033912;28;20021;-71
2023/02/08 12:35:16;;;;;;;10.52;7.70;;;6.70;99.90;;;;;;5035696;28;20030;-70
2023/02/08 12:41:07;;;;;;;10.65;6.07;;;6.80;99.90;;;;;;5033265;28;20040;-70
2023/02/08 12:43:57;;;;;;;8.25;5.32;;;6.90;99.90;;;;;;5033632;28;20036;-70
2023/02/08 12:46:41;;;;;;;11.65;6.28;;;6.90;99.90;;;;;;5031454;28;20025;-70
2023/02/08 12:49:16;;;;;;;8.45;5.93;;;6.90;99.90;;;;;;5034063;28;20470;-70
2023/02/08 12:51:57;;;;;;;8.73;5.85;;;6.80;99.90;;;;;;5036199;28;20041;-69
2023/02/08 12:54:49;;;;;;;9.05;7.22;;;6.80;99.90;;;;;;5034354;28;20559;-70
2023/02/08 12:57:19;;;;;;;10.25;5.50;;;6.80;99.90;;;;;;5034517;28;20433;-70
2023/02/08 12:59:47;;;;;;;9.77;5.45;;;6.90;99.90;;;;;;5030441;28;20048;-70